Terminal Aerodrome Forecast
Issued by NWS

Home | Current Version | Previous Version | Graphics & Text | Print | Product List | Glossary On
Versions: 1 2 3 4 5 6 7 8 9 10 11 12 13 14 15
746
FTUS43 KGRB 091738
TAFAUW
TAF
KAUW 091738Z 0918/1018 33012G18KT P6SM -SN BKN025 OVC035
      TEMPO 0918/0920 SCT025 BKN035
     FM092000 33010G16KT P6SM SCT025 BKN035
      TEMPO 0920/0924 5SM -SN BKN025
     FM100000 32010KT P6SM SCT025 BKN040
      TEMPO 1008/1012 SCT040
     FM101200 31008KT P6SM SCT040=

USA.gov is the U.S. government's official web portal to all federal, state and local government web resources and services.